J Strider — 2CMH7 — position and weather

sailwx.info

Track history (hours):
 
Tides and Currents Weather Stations Pressure Air Temp Water Temp Dewpoint Dewpoint Depression Visibility Wind Speed Wind Dir Waves Ship Positions

J Strider

Last reported at 2018-Feb-25 08:20 UTC. Time now 2018-Feb-25 14:09 UTC.
Position N 36°06' W 005°22'.

Length 14 m.

MMSI: 235074003.

Date/timePositionNaut miles runAvg speedWind from/ knotsBaromVisibWave heightAir tempDewpointWater temp
2018-Feb-25 08:20N 36°06' W 005°22'3 2.1
2018-Feb-25 07:07N 36°09' W 005°22'1 6.0
2018-Feb-25 07:00N 36°08' W 005°22'1 0.2
2018-Feb-25 03:59N 36°09' W 005°22'0 0.0
2018-Feb-24 07:07N 36°09' W 005°22'0 1.4
2018-Feb-24 07:00N 36°09' W 005°22'0 0.0
2018-Feb-23 21:23N 36°09' W 005°22'1 2.8
2018-Feb-23 21:00N 36°08' W 005°22'1 2.2
2018-Feb-23 20:29N 36°09' W 005°22'0 0.0
2018-Feb-23 19:58N 36°09' W 005°22'0 0.2
2018-Feb-23 19:29N 36°09' W 005°22'0 0.0
2018-Feb-23 05:43N 36°09' W 005°22'2 6.3
2018-Feb-23 05:27N 36°07' W 005°22'2 0.3
2018-Feb-23 00:12N 36°09' W 005°22'0 0.0
2018-Feb-21 22:20N 36°09' W 005°22'1 1.7
2018-Feb-21 22:00N 36°08' W 005°22'0 0.2
2018-Feb-21 19:11N 36°09' W 005°22'0 1.1
2018-Feb-21 19:00N 36°09' W 005°22'0 0.0
2018-Feb-21 07:32N 36°09' W 005°22'0 0.6
2018-Feb-21 07:21N 36°09' W 005°22'0 0.0
2018-Feb-21 00:46N 36°09' W 005°22'1 5.6
2018-Feb-21 00:30N 36°07' W 005°22'1 2.3
2018-Feb-20 23:55N 36°09' W 005°22'0 0.0
2018-Feb-20 21:03N 36°09' W 005°22'0 2.3
2018-Feb-20 20:58N 36°09' W 005°22'1 1.0
2018-Feb-20 20:27N 36°08' W 005°22'1 0.6
2018-Feb-20 19:15N 36°09' W 005°22'0 0.0
2018-Feb-20 18:59N 36°09' W 005°22'3 0.1
2018-Feb-19 15:08N 36°07' W 005°19'  
2018-Feb-15 23:20N 36°09' W 005°23'1 0.4
2018-Feb-15 21:35N 36°09' W 005°22'1 8.9
2018-Feb-15 21:27N 36°08' W 005°22'1 1.0
2018-Feb-15 20:38N 36°07' W 005°21'0 0.1
2018-Feb-15 20:26N 36°07' W 005°21'0 0.1
2018-Feb-15 20:00N 36°07' W 005°21'2 3.8
2018-Feb-15 19:28N 36°09' W 005°22'  
Track history (hours):
 
Tides and Currents Weather Stations Pressure Air Temp Water Temp Dewpoint Dewpoint Depression Visibility Wind Speed Wind Dir Waves Ship Positions

J Strider

Last reported at 2018-Feb-25 08:20 UTC. Time now 2018-Feb-25 14:09 UTC.
Position N 36°06' W 005°22'.

Length 14 m.

MMSI: 235074003.

Date/timePositionNaut miles runAvg speedWind from/ knotsBaromVisibWave heightAir tempDewpointWater temp
2018-Feb-25 08:20N 36°06' W 005°22'3 2.1
2018-Feb-25 07:07N 36°09' W 005°22'1 6.0
2018-Feb-25 07:00N 36°08' W 005°22'1 0.2
2018-Feb-25 03:59N 36°09' W 005°22'0 0.0
2018-Feb-24 07:07N 36°09' W 005°22'0 1.4
2018-Feb-24 07:00N 36°09' W 005°22'0 0.0
2018-Feb-23 21:23N 36°09' W 005°22'1 2.8
2018-Feb-23 21:00N 36°08' W 005°22'1 2.2
2018-Feb-23 20:29N 36°09' W 005°22'0 0.0
2018-Feb-23 19:58N 36°09' W 005°22'0 0.2
2018-Feb-23 19:29N 36°09' W 005°22'0 0.0
2018-Feb-23 05:43N 36°09' W 005°22'2 6.3
2018-Feb-23 05:27N 36°07' W 005°22'2 0.3
2018-Feb-23 00:12N 36°09' W 005°22'0 0.0
2018-Feb-21 22:20N 36°09' W 005°22'1 1.7
2018-Feb-21 22:00N 36°08' W 005°22'0 0.2
2018-Feb-21 19:11N 36°09' W 005°22'0 1.1
2018-Feb-21 19:00N 36°09' W 005°22'0 0.0
2018-Feb-21 07:32N 36°09' W 005°22'0 0.6
2018-Feb-21 07:21N 36°09' W 005°22'0 0.0
2018-Feb-21 00:46N 36°09' W 005°22'1 5.6
2018-Feb-21 00:30N 36°07' W 005°22'1 2.3
2018-Feb-20 23:55N 36°09' W 005°22'0 0.0
2018-Feb-20 21:03N 36°09' W 005°22'0 2.3
2018-Feb-20 20:58N 36°09' W 005°22'1 1.0
2018-Feb-20 20:27N 36°08' W 005°22'1 0.6
2018-Feb-20 19:15N 36°09' W 005°22'0 0.0
2018-Feb-20 18:59N 36°09' W 005°22'3 0.1
2018-Feb-19 15:08N 36°07' W 005°19'  
2018-Feb-15 23:20N 36°09' W 005°23'1 0.4
2018-Feb-15 21:35N 36°09' W 005°22'1 8.9
2018-Feb-15 21:27N 36°08' W 005°22'1 1.0
2018-Feb-15 20:38N 36°07' W 005°21'0 0.1
2018-Feb-15 20:26N 36°07' W 005°21'0 0.1
2018-Feb-15 20:00N 36°07' W 005°21'2 3.8
2018-Feb-15 19:28N 36°09' W 005°22'  

Dump ship's entire track history